createdAt,value
2022-11-17T00:27:40.613Z,4.78
2022-11-17T02:03:44.636Z,4.13
2022-11-17T02:15:06.134Z,4.23
2022-11-17T03:43:27.319Z,3.95
2022-11-17T04:01:59.905Z,4.06
2022-11-17T04:21:59.505Z,4.01
2022-11-17T04:55:24.225Z,4.13
2022-11-17T06:23:06.405Z,4.32
2022-11-17T06:34:28.736Z,4.41
2022-11-17T06:54:23.478Z,4.56
2022-11-17T06:56:52.532Z,4.54
2022-11-17T06:59:19.993Z,4.49
2022-11-17T07:01:47.601Z,4.50
2022-11-17T07:04:15.202Z,4.49
2022-11-17T07:06:42.683Z,4.44
2022-11-17T07:09:10.168Z,4.46
2022-11-17T07:11:37.643Z,4.48
2022-11-17T07:14:05.125Z,4.54
2022-11-17T07:16:32.831Z,4.65
2022-11-17T07:19:03.503Z,4.63
2022-11-17T07:21:31.539Z,4.61
2022-11-17T07:23:59.167Z,4.58
2022-11-17T07:26:26.979Z,4.55
2022-11-17T07:28:54.461Z,4.54
2022-11-17T07:31:22.305Z,4.54
2022-11-17T07:33:51.463Z,4.61
2022-11-17T07:36:18.941Z,4.58
2022-11-17T07:38:46.428Z,4.66
2022-11-17T07:41:14.506Z,4.68
2022-11-17T07:43:42.117Z,4.68
2022-11-17T07:46:12.357Z,4.65
2022-11-17T07:48:40.550Z,4.65
2022-11-17T07:51:08.267Z,4.68
2022-11-17T07:53:36.355Z,4.69
2022-11-17T07:56:08.275Z,4.67
2022-11-17T07:58:36.583Z,4.75
2022-11-17T08:01:09.628Z,4.76
2022-11-17T08:03:37.527Z,4.73
2022-11-17T08:06:06.125Z,4.77
2022-11-17T08:08:34.469Z,4.78
2022-11-17T08:11:12.965Z,4.74
2022-11-17T08:13:40.931Z,4.75
2022-11-17T08:16:09.969Z,4.76
2022-11-17T08:18:37.866Z,4.82
2022-11-17T08:21:06.742Z,4.83
2022-11-17T08:23:34.573Z,4.80
2022-11-17T08:26:03.631Z,4.81
2022-11-17T08:28:31.454Z,4.76
2022-11-17T08:31:01.262Z,4.76
2022-11-17T08:33:29.075Z,4.79
2022-11-17T08:36:00.510Z,4.81
2022-11-17T08:38:31.586Z,4.84
2022-11-17T08:41:01.472Z,4.73
2022-11-17T08:43:29.313Z,4.71
2022-11-17T08:45:56.789Z,4.70
2022-11-17T08:48:24.514Z,4.69
2022-11-17T08:50:52.110Z,4.70
2022-11-17T08:53:21.029Z,4.79
2022-11-17T08:55:48.912Z,4.81
2022-11-17T08:58:17.078Z,4.81
2022-11-17T09:00:47.487Z,4.83
2022-11-17T09:03:15.629Z,4.87
2022-11-17T09:05:47.214Z,4.87
2022-11-17T09:08:45.134Z,4.86
2022-11-17T09:11:07.006Z,4.88
2022-11-17T09:13:39.397Z,4.90
2022-11-17T09:16:08.933Z,4.86
2022-11-17T09:18:38.397Z,4.88
2022-11-17T09:21:14.080Z,4.87
2022-11-17T09:23:41.570Z,4.92
2022-11-17T09:26:14.089Z,4.90
2022-11-17T09:28:42.298Z,4.89
2022-11-17T09:31:18.215Z,4.92
2022-11-17T09:33:46.131Z,4.93
2022-11-17T09:36:15.956Z,4.95
2022-11-17T09:38:43.624Z,4.93
2022-11-17T09:41:26.816Z,4.93
2022-11-17T09:44:40.420Z,4.92
2022-11-17T09:47:41.708Z,4.90
2022-11-17T09:50:20.356Z,4.94
2022-11-17T09:53:11.593Z,4.95
2022-11-17T09:55:41.828Z,5.02
2022-11-17T09:58:38.784Z,5.02
2022-11-17T10:01:09.194Z,5.02
2022-11-17T10:03:43.640Z,5.08
2022-11-17T10:06:27.433Z,5.03
2022-11-17T10:09:21.008Z,5.06
2022-11-17T10:11:53.483Z,5.05
2022-11-17T10:14:22.174Z,5.02
2022-11-17T10:16:55.168Z,5.07
2022-11-17T10:19:24.686Z,5.11
2022-11-17T10:21:56.727Z,5.12
2022-11-17T10:24:51.208Z,5.12
2022-11-17T10:27:30.218Z,5.10
2022-11-17T10:30:01.531Z,5.09
2022-11-17T10:32:31.901Z,5.15
2022-11-17T10:35:20.133Z,5.14
2022-11-17T10:38:13.419Z,5.13
2022-11-17T10:40:40.899Z,5.08
2022-11-17T10:43:14.177Z,5.08
2022-11-17T10:45:49.085Z,5.06
2022-11-17T10:48:37.184Z,5.10
2022-11-17T10:51:25.664Z,5.16
2022-11-17T10:54:17.871Z,5.15
2022-11-17T10:56:51.345Z,5.15
2022-11-17T10:59:29.035Z,5.15
2022-11-17T11:01:56.631Z,5.15
2022-11-17T11:04:37.190Z,5.17
2022-11-17T11:07:12.393Z,5.16
2022-11-17T11:10:03.957Z,5.12
2022-11-17T11:12:49.555Z,5.12
2022-11-17T11:15:20.759Z,5.13
2022-11-17T11:17:48.490Z,5.13
2022-11-17T11:20:18.008Z,5.18
2022-11-17T11:23:09.370Z,5.14
2022-11-17T11:25:42.131Z,5.11
2022-11-17T11:28:28.451Z,5.12
2022-11-17T11:31:04.947Z,5.17
2022-11-17T11:33:37.219Z,5.18
2022-11-17T11:36:21.865Z,5.22
2022-11-17T11:39:07.223Z,5.18
2022-11-17T11:42:07.553Z,5.19
2022-11-17T11:45:15.987Z,5.16
2022-11-17T11:48:06.390Z,5.17
2022-11-17T11:50:43.226Z,5.17
2022-11-17T11:53:56.911Z,5.21
2022-11-17T11:56:30.389Z,5.25
2022-11-17T11:59:07.586Z,5.30
2022-11-17T12:01:45.275Z,5.26
2022-11-17T12:04:39.160Z,5.26
2022-11-17T12:07:17.036Z,5.30
2022-11-17T12:10:11.338Z,5.30
2022-11-17T12:12:40.121Z,5.33
2022-11-17T12:15:19.842Z,5.42
2022-11-17T12:17:53.081Z,5.47
2022-11-17T12:20:38.923Z,5.50
2022-11-17T12:23:27.765Z,5.50
2022-11-17T12:25:59.825Z,5.53
2022-11-17T12:28:30.776Z,5.54
2022-11-17T14:01:33.457Z,5.50
2022-11-17T14:04:19.384Z,5.46
2022-11-17T14:06:57.067Z,5.39
2022-11-17T14:09:30.859Z,5.45
2022-11-17T14:11:58.919Z,5.51
2022-11-17T14:14:46.795Z,5.50
2022-11-17T14:17:22.197Z,5.45
2022-11-17T14:19:49.717Z,5.43
2022-11-17T14:22:23.440Z,5.46
2022-11-17T14:24:53.406Z,5.42
2022-11-17T14:27:29.887Z,5.43
2022-11-17T14:29:57.502Z,5.37
2022-11-17T14:32:24.965Z,5.25
2022-11-17T14:34:52.452Z,5.20
2022-11-17T14:37:20.769Z,5.08
2022-11-17T14:39:48.373Z,5.13
2022-11-17T14:42:15.857Z,5.18
2022-11-17T14:44:44.298Z,5.19
2022-11-17T14:47:11.915Z,5.18
2022-11-17T14:49:39.638Z,5.17
2022-11-17T14:52:07.230Z,5.17
2022-11-17T14:54:34.580Z,5.15
2022-11-17T14:57:03.523Z,5.13
2022-11-17T14:59:31.351Z,5.09
2022-11-17T15:01:59.078Z,5.16
2022-11-17T15:04:50.988Z,5.15
2022-11-17T15:07:13.989Z,5.11
2022-11-17T15:09:41.671Z,5.15
2022-11-17T15:12:10.575Z,5.16
2022-11-17T15:14:38.316Z,5.14
2022-11-17T15:17:09.829Z,5.11
2022-11-17T15:19:40.744Z,5.15
2022-11-17T15:22:08.574Z,5.18
2022-11-17T15:24:36.067Z,5.07
2022-11-17T15:27:03.768Z,5.03
2022-11-17T15:29:33.289Z,5.01
2022-11-17T15:32:00.891Z,4.99
2022-11-17T15:34:28.366Z,5.05
2022-11-17T15:36:55.983Z,5.01
2022-11-17T15:39:23.510Z,4.92
2022-11-17T15:41:52.133Z,4.95
2022-11-17T15:44:19.986Z,4.92
2022-11-17T15:46:49.020Z,4.97
2022-11-17T15:49:17.096Z,4.97
2022-11-17T15:51:44.947Z,4.95
2022-11-17T15:54:19.702Z,4.89
2022-11-17T15:56:47.940Z,4.79
2022-11-17T15:59:15.842Z,4.80
2022-11-17T16:01:44.360Z,4.80
2022-11-17T16:04:14.825Z,4.79
2022-11-17T16:06:44.510Z,4.82
2022-11-17T16:09:13.009Z,4.81
2022-11-17T16:11:41.387Z,4.85
2022-11-17T16:14:09.324Z,4.76
2022-11-17T16:16:38.357Z,4.68
2022-11-17T16:19:06.572Z,4.74
2022-11-17T16:21:34.524Z,4.81
2022-11-17T16:24:02.425Z,4.72
2022-11-17T16:26:32.123Z,4.78
2022-11-17T16:29:02.191Z,4.74
2022-11-17T16:31:32.607Z,4.71
2022-11-17T16:34:12.578Z,4.76
2022-11-17T16:36:41.729Z,4.73
2022-11-17T16:39:11.979Z,4.62
2022-11-17T16:41:41.747Z,4.61
2022-11-17T16:44:14.904Z,4.66
2022-11-17T16:46:51.601Z,4.66
2022-11-17T16:49:47.849Z,4.70
2022-11-17T16:52:18.231Z,4.63
2022-11-17T17:03:57.463Z,4.38
2022-11-17T17:06:31.446Z,4.42
2022-11-17T17:09:03.033Z,4.44
2022-11-17T17:11:32.177Z,4.45
2022-11-17T17:14:03.034Z,4.49
2022-11-17T17:16:32.516Z,4.51
2022-11-17T17:19:04.206Z,4.50
2022-11-17T17:21:34.806Z,4.50
2022-11-17T17:24:02.523Z,4.47
2022-11-17T17:26:32.040Z,4.49
2022-11-17T17:29:00.739Z,4.48
2022-11-17T17:31:34.217Z,4.45
2022-11-17T17:34:01.931Z,4.48
2022-11-17T17:36:30.016Z,4.49
2022-11-17T17:38:59.302Z,4.49
2022-11-17T18:11:33.044Z,4.51
2022-11-17T18:14:00.648Z,4.49
2022-11-17T18:16:30.871Z,4.46
2022-11-17T18:19:04.004Z,4.40
2022-11-17T18:21:32.472Z,4.45
2022-11-17T18:24:01.725Z,4.47
2022-11-17T20:00:40.894Z,3.49
